Ellenburg Center, NY (12934)

11:13 AM EST on December 08, 2016 (GMT -0500)
Ellenburg Depot | | Change Station

Elev 1000 ft 44.91 °N, 73.82 °W | Updated 56 seconds ago

Overcast
Overcast
35.1 °F
Feels Like 28 °F
N
10.0
Wind Variable Wind from West
Gusts 17.0 mph

Today
High -- | Low -- °F
--% Chance of Precip.
Yesterday
High -- | Low -- °F
Precip. -- in
Pressure 29.80 in
Visibility 9.0 miles
Clouds Scattered Clouds 3500 ft
Scattered Clouds 4400 ft
Overcast 7500 ft
Windchill 28 °F
Dew Point 24 °F
Humidity 63%
Rainfall 0.00 in
Snow Depth Not available.
7:20 AM 4:14 PM
Waxing Gibbous, 64% visible
METAR KPBG 081553Z AUTO VRB05KT 9SM SCT035 SCT044 OVC075 03/M03 A2979 RMK AO2 UPB1459E01B37E38SNE1459B05E37B38E51 SLP091 P0000 T00281028
Pressure 29.80 in
Visibility 9.0 miles
Clouds Scattered Clouds 3500 ft
Scattered Clouds 4400 ft
Overcast 7500 ft
Windchill 28 °F
Dew Point 24 °F
Humidity 63%
Rainfall 0.00 in
Snow Depth Not available.
7:20 AM 4:14 PM
Waxing Gibbous, 64% visible
METAR KPBG 081553Z AUTO VRB05KT 9SM SCT035 SCT044 OVC075 03/M03 A2979 RMK AO2 UPB1459E01B37E38SNE1459B05E37B38E51 SLP091 P0000 T00281028

10-Day Weather Forecast

Almanac

Astronomy

Dec. 08, 2016 Rise Set
Actual Time
Civil Twilight
Nautical Twilight
Astronomical Twilight
Moon
Length of Visible Light
Length of Day
Tomorrow will be .
, % of the Moon is Illuminated

Today's Extremes

State Highs State Lows

Community

WunderPhotos

Upload Photos

1,956,274 photos uploaded!

WunderBlog® & News

Nearby

Air Quality

  Air Quality AQ Index Pollutant
Not available.

Snow Depth

Station Depth Elevation

Earthquake Activity

City Distance Mag. Time & Date
Minimum magnitude displayed is 2.5.

Coastal Water Temperatures

Place Temperature

Stations

Nearby Weather Stations

Station Location Temp. Windchill Dew Point Humidity Wind Precip. Elev Updated Type
                   

Watches & Warnings

There are currently no watches in effect.